sensor_id;sensor_type;location;lat;lon;timestamp;pressure;altitude;pressure_sealevel;temperature;humidity
13732;BME280;6937;56.096;12.664;2023-07-29T00:01:18;99635.72;;;16.21;100.00
13732;BME280;6937;56.096;12.664;2023-07-29T00:03:43;99595.28;;;16.21;100.00
13732;BME280;6937;56.096;12.664;2023-07-29T00:06:09;99571.19;;;16.20;100.00
13732;BME280;6937;56.096;12.664;2023-07-29T00:08:34;99544.94;;;16.14;100.00
13732;BME280;6937;56.096;12.664;2023-07-29T00:11:00;99525.94;;;16.07;100.00
13732;BME280;6937;56.096;12.664;2023-07-29T00:13:25;99519.19;;;16.11;100.00
13732;BME280;6937;56.096;12.664;2023-07-29T00:15:54;99476.06;;;16.11;100.00
13732;BME280;6937;56.096;12.664;2023-07-29T00:18:19;99466.28;;;16.10;100.00
13732;BME280;6937;56.096;12.664;2023-07-29T00:20:45;99445.06;;;16.15;100.00
13732;BME280;6937;56.096;12.664;2023-07-29T00:23:10;99399.22;;;16.15;100.00
13732;BME280;6937;56.096;12.664;2023-07-29T00:25:36;99402.34;;;16.27;100.00
13732;BME280;6937;56.096;12.664;2023-07-29T00:28:01;99377.88;;;16.28;100.00
13732;BME280;6937;56.096;12.664;2023-07-29T00:30:26;99355.78;;;16.33;100.00
13732;BME280;6937;56.096;12.664;2023-07-29T00:32:52;99360.50;;;16.31;100.00
13732;BME280;6937;56.096;12.664;2023-07-29T00:35:17;99367.56;;;16.32;100.00
13732;BME280;6937;56.096;12.664;2023-07-29T00:37:43;99374.09;;;16.37;100.00
13732;BME280;6937;56.096;12.664;2023-07-29T00:40:14;99370.19;;;16.40;100.00
13732;BME280;6937;56.096;12.664;2023-07-29T00:42:40;99383.38;;;16.35;100.00
13732;BME280;6937;56.096;12.664;2023-07-29T00:45:08;99391.78;;;16.40;100.00
13732;BME280;6937;56.096;12.664;2023-07-29T00:47:33;99407.31;;;16.38;100.00
13732;BME280;6937;56.096;12.664;2023-07-29T00:49:59;99422.81;;;16.36;100.00
13732;BME280;6937;56.096;12.664;2023-07-29T00:52:24;99420.22;;;16.20;100.00
13732;BME280;6937;56.096;12.664;2023-07-29T00:54:50;99430.69;;;16.23;100.00
13732;BME280;6937;56.096;12.664;2023-07-29T00:57:16;99412.63;;;16.23;100.00
13732;BME280;6937;56.096;12.664;2023-07-29T00:59:42;99407.22;;;16.23;100.00
13732;BME280;6937;56.096;12.664;2023-07-29T01:02:08;99404.34;;;16.25;100.00
13732;BME280;6937;56.096;12.664;2023-07-29T01:04:34;99405.09;;;16.19;100.00
13732;BME280;6937;56.096;12.664;2023-07-29T01:07:15;99409.16;;;16.15;100.00
13732;BME280;6937;56.096;12.664;2023-07-29T01:09:58;99393.88;;;16.07;100.00
13732;BME280;6937;56.096;12.664;2023-07-29T01:12:42;99360.88;;;16.05;100.00
13732;BME280;6937;56.096;12.664;2023-07-29T01:15:25;99339.16;;;16.07;100.00
13732;BME280;6937;56.096;12.664;2023-07-29T01:17:57;99305.31;;;16.04;100.00
13732;BME280;6937;56.096;12.664;2023-07-29T01:20:25;99269.44;;;16.04;100.00
13732;BME280;6937;56.096;12.664;2023-07-29T01:22:50;99243.13;;;16.06;100.00
13732;BME280;6937;56.096;12.664;2023-07-29T01:25:16;99228.56;;;16.15;100.00
13732;BME280;6937;56.096;12.664;2023-07-29T01:27:45;99201.63;;;16.15;100.00
13732;BME280;6937;56.096;12.664;2023-07-29T01:30:11;99179.84;;;16.16;100.00
13732;BME280;6937;56.096;12.664;2023-07-29T01:32:43;99156.44;;;16.17;100.00
13732;BME280;6937;56.096;12.664;2023-07-29T01:35:28;99157.75;;;16.21;100.00
13732;BME280;6937;56.096;12.664;2023-07-29T01:38:03;99162.88;;;16.16;100.00
13732;BME280;6937;56.096;12.664;2023-07-29T01:40:29;99170.28;;;16.14;100.00
13732;BME280;6937;56.096;12.664;2023-07-29T01:42:54;99158.28;;;16.16;100.00
13732;BME280;6937;56.096;12.664;2023-07-29T01:45:24;99158.28;;;16.16;100.00
13732;BME280;6937;56.096;12.664;2023-07-29T01:47:52;99176.81;;;16.19;100.00
13732;BME280;6937;56.096;12.664;2023-07-29T01:50:18;99171.78;;;16.16;100.00
13732;BME280;6937;56.096;12.664;2023-07-29T01:52:43;99185.06;;;16.18;100.00
13732;BME280;6937;56.096;12.664;2023-07-29T01:55:09;99187.47;;;16.13;100.00
13732;BME280;6937;56.096;12.664;2023-07-29T01:57:34;99196.97;;;16.23;100.00
13732;BME280;6937;56.096;12.664;2023-07-29T01:59:59;99216.97;;;16.29;100.00
13732;BME280;6937;56.096;12.664;2023-07-29T02:02:25;99226.34;;;16.33;100.00
13732;BME280;6937;56.096;12.664;2023-07-29T02:04:50;99248.09;;;16.31;100.00
13732;BME280;6937;56.096;12.664;2023-07-29T02:07:18;99259.09;;;16.30;100.00
13732;BME280;6937;56.096;12.664;2023-07-29T02:09:44;99274.59;;;16.28;100.00
13732;BME280;6937;56.096;12.664;2023-07-29T02:12:09;99277.81;;;16.23;100.00
13732;BME280;6937;56.096;12.664;2023-07-29T02:14:35;99306.00;;;16.21;100.00
13732;BME280;6937;56.096;12.664;2023-07-29T02:17:00;99305.91;;;16.14;100.00
13732;BME280;6937;56.096;12.664;2023-07-29T02:19:26;99319.69;;;16.19;100.00
13732;BME280;6937;56.096;12.664;2023-07-29T02:21:51;99330.47;;;16.19;100.00
13732;BME280;6937;56.096;12.664;2023-07-29T02:24:16;99346.97;;;16.16;100.00
13732;BME280;6937;56.096;12.664;2023-07-29T02:26:42;99360.66;;;16.15;100.00
13732;BME280;6937;56.096;12.664;2023-07-29T02:29:07;99376.50;;;16.10;100.00
13732;BME280;6937;56.096;12.664;2023-07-29T02:31:32;99393.22;;;16.05;100.00
13732;BME280;6937;56.096;12.664;2023-07-29T02:33:59;99397.75;;;16.05;100.00
13732;BME280;6937;56.096;12.664;2023-07-29T02:36:25;99390.88;;;16.02;100.00
13732;BME280;6937;56.096;12.664;2023-07-29T02:38:50;99401.28;;;16.05;100.00
13732;BME280;6937;56.096;12.664;2023-07-29T02:41:15;99409.75;;;16.02;100.00
13732;BME280;6937;56.096;12.664;2023-07-29T02:43:42;99424.91;;;16.03;100.00
13732;BME280;6937;56.096;12.664;2023-07-29T02:46:09;99447.31;;;16.04;100.00
13732;BME280;6937;56.096;12.664;2023-07-29T02:48:34;99475.91;;;16.05;100.00
13732;BME280;6937;56.096;12.664;2023-07-29T02:50:59;99487.25;;;16.00;100.00
13732;BME280;6937;56.096;12.664;2023-07-29T02:53:25;99532.19;;;16.08;100.00
13732;BME280;6937;56.096;12.664;2023-07-29T02:55:50;99574.66;;;15.98;100.00
13732;BME280;6937;56.096;12.664;2023-07-29T02:58:16;99607.34;;;15.94;100.00
13732;BME280;6937;56.096;12.664;2023-07-29T03:00:41;99625.06;;;15.89;100.00
13732;BME280;6937;56.096;12.664;2023-07-29T03:03:08;99644.09;;;15.87;100.00
13732;BME280;6937;56.096;12.664;2023-07-29T03:05:33;99658.91;;;15.83;100.00
13732;BME280;6937;56.096;12.664;2023-07-29T03:07:59;99674.06;;;15.84;100.00
13732;BME280;6937;56.096;12.664;2023-07-29T03:10:24;99708.09;;;15.85;100.00
13732;BME280;6937;56.096;12.664;2023-07-29T03:12:50;99704.56;;;15.77;100.00
13732;BME280;6937;56.096;12.664;2023-07-29T03:15:16;99742.09;;;15.86;100.00
13732;BME280;6937;56.096;12.664;2023-07-29T03:17:41;99768.03;;;15.87;100.00
13732;BME280;6937;56.096;12.664;2023-07-29T03:20:07;99777.13;;;15.86;100.00
13732;BME280;6937;56.096;12.664;2023-07-29T03:22:32;99783.69;;;15.84;100.00
13732;BME280;6937;56.096;12.664;2023-07-29T03:24:58;99807.25;;;15.90;100.00
13732;BME280;6937;56.096;12.664;2023-07-29T03:27:23;99821.06;;;15.87;100.00
13732;BME280;6937;56.096;12.664;2023-07-29T03:29:48;99845.50;;;15.93;100.00
13732;BME280;6937;56.096;12.664;2023-07-29T03:32:14;99854.41;;;15.94;100.00
13732;BME280;6937;56.096;12.664;2023-07-29T03:34:39;99865.38;;;15.92;100.00
13732;BME280;6937;56.096;12.664;2023-07-29T03:37:05;99883.91;;;15.95;100.00
13732;BME280;6937;56.096;12.664;2023-07-29T03:39:31;99880.88;;;15.99;100.00
13732;BME280;6937;56.096;12.664;2023-07-29T03:41:57;99897.91;;;15.99;100.00
13732;BME280;6937;56.096;12.664;2023-07-29T03:44:22;99908.84;;;15.98;100.00
13732;BME280;6937;56.096;12.664;2023-07-29T03:46:47;99922.50;;;15.96;100.00
13732;BME280;6937;56.096;12.664;2023-07-29T03:49:13;99937.47;;;15.99;100.00
13732;BME280;6937;56.096;12.664;2023-07-29T03:51:38;99943.72;;;15.99;100.00
13732;BME280;6937;56.096;12.664;2023-07-29T03:54:04;99937.97;;;15.94;100.00
13732;BME280;6937;56.096;12.664;2023-07-29T03:56:29;99944.56;;;16.00;100.00
13732;BME280;6937;56.096;12.664;2023-07-29T03:59:02;99949.25;;;15.98;100.00
13732;BME280;6937;56.096;12.664;2023-07-29T04:01:28;99956.84;;;16.02;100.00
13732;BME280;6937;56.096;12.664;2023-07-29T04:03:54;99960.06;;;16.06;100.00
13732;BME280;6937;56.096;12.664;2023-07-29T04:06:20;99964.28;;;16.08;100.00
13732;BME280;6937;56.096;12.664;2023-07-29T04:08:45;99966.66;;;16.11;100.00
13732;BME280;6937;56.096;12.664;2023-07-29T04:11:11;99960.56;;;16.09;100.00
13732;BME280;6937;56.096;12.664;2023-07-29T04:13:36;99964.47;;;16.15;100.00
13732;BME280;6937;56.096;12.664;2023-07-29T04:16:03;99957.03;;;16.17;100.00
13732;BME280;6937;56.096;12.664;2023-07-29T04:18:29;99967.34;;;16.21;100.00
13732;BME280;6937;56.096;12.664;2023-07-29T04:20:54;99965.50;;;16.22;100.00
13732;BME280;6937;56.096;12.664;2023-07-29T04:23:20;99967.84;;;16.25;100.00
13732;BME280;6937;56.096;12.664;2023-07-29T04:25:45;99965.66;;;16.28;100.00
13732;BME280;6937;56.096;12.664;2023-07-29T04:28:11;99968.00;;;16.31;100.00
13732;BME280;6937;56.096;12.664;2023-07-29T04:30:36;99956.91;;;16.34;100.00
13732;BME280;6937;56.096;12.664;2023-07-29T04:33:02;99959.28;;;16.37;100.00
13732;BME280;6937;56.096;12.664;2023-07-29T04:35:27;99951.84;;;16.39;100.00
13732;BME280;6937;56.096;12.664;2023-07-29T04:37:53;99951.84;;;16.39;100.00
13732;BME280;6937;56.096;12.664;2023-07-29T04:40:18;99953.53;;;16.49;100.00
13732;BME280;6937;56.096;12.664;2023-07-29T04:42:43;99958.75;;;16.50;100.00
13732;BME280;6937;56.096;12.664;2023-07-29T04:45:09;99965.00;;;16.51;100.00
13732;BME280;6937;56.096;12.664;2023-07-29T04:47:34;99957.25;;;16.48;100.00
13732;BME280;6937;56.096;12.664;2023-07-29T04:50:00;99946.47;;;16.48;100.00
13732;BME280;6937;56.096;12.664;2023-07-29T04:52:25;99932.63;;;16.51;100.00
13732;BME280;6937;56.096;12.664;2023-07-29T04:54:50;99913.09;;;16.49;100.00
13732;BME280;6937;56.096;12.664;2023-07-29T04:57:16;99912.06;;;16.58;100.00
13732;BME280;6937;56.096;12.664;2023-07-29T04:59:41;99907.38;;;16.60;100.00
13732;BME280;6937;56.096;12.664;2023-07-29T05:02:07;99896.06;;;16.64;100.00
13732;BME280;6937;56.096;12.664;2023-07-29T05:04:32;99865.22;;;16.67;100.00
13732;BME280;6937;56.096;12.664;2023-07-29T05:06:57;99849.31;;;16.80;100.00
13732;BME280;6937;56.096;12.664;2023-07-29T05:09:23;99829.91;;;16.84;100.00
13732;BME280;6937;56.096;12.664;2023-07-29T05:11:49;99814.03;;;16.89;100.00
13732;BME280;6937;56.096;12.664;2023-07-29T05:14:15;99799.16;;;17.02;100.00
13732;BME280;6937;56.096;12.664;2023-07-29T05:16:41;99784.81;;;17.01;100.00
13732;BME280;6937;56.096;12.664;2023-07-29T05:19:07;99768.75;;;17.08;100.00
13732;BME280;6937;56.096;12.664;2023-07-29T05:21:33;99748.16;;;17.07;100.00
13732;BME280;6937;56.096;12.664;2023-07-29T05:23:58;99728.19;;;17.16;100.00
13732;BME280;6937;56.096;12.664;2023-07-29T05:26:24;99710.25;;;17.23;100.00
13732;BME280;6937;56.096;12.664;2023-07-29T05:28:49;99691.94;;;17.33;100.00
13732;BME280;6937;56.096;12.664;2023-07-29T05:31:14;99667.28;;;17.36;100.00
13732;BME280;6937;56.096;12.664;2023-07-29T05:33:40;99654.66;;;17.51;100.00
13732;BME280;6937;56.096;12.664;2023-07-29T05:36:05;99654.44;;;17.61;100.00
13732;BME280;6937;56.096;12.664;2023-07-29T05:38:31;99634.78;;;17.67;100.00
13732;BME280;6937;56.096;12.664;2023-07-29T05:40:56;99628.00;;;17.71;100.00
13732;BME280;6937;56.096;12.664;2023-07-29T05:43:23;99621.97;;;17.83;100.00
13732;BME280;6937;56.096;12.664;2023-07-29T05:45:49;99612.38;;;17.96;100.00
13732;BME280;6937;56.096;12.664;2023-07-29T05:48:14;99597.94;;;18.03;100.00
13732;BME280;6937;56.096;12.664;2023-07-29T05:50:39;99596.50;;;18.07;100.00
13732;BME280;6937;56.096;12.664;2023-07-29T05:53:05;99591.38;;;18.12;100.00
13732;BME280;6937;56.096;12.664;2023-07-29T05:55:30;99579.22;;;18.23;100.00
13732;BME280;6937;56.096;12.664;2023-07-29T05:57:55;99573.94;;;18.29;100.00
13732;BME280;6937;56.096;12.664;2023-07-29T06:00:21;99547.91;;;18.28;100.00
13732;BME280;6937;56.096;12.664;2023-07-29T06:02:46;99524.56;;;18.27;100.00
13732;BME280;6937;56.096;12.664;2023-07-29T06:05:11;99511.50;;;18.31;100.00
13732;BME280;6937;56.096;12.664;2023-07-29T06:07:37;99493.13;;;18.26;100.00
13732;BME280;6937;56.096;12.664;2023-07-29T06:10:03;99464.22;;;18.27;100.00
13732;BME280;6937;56.096;12.664;2023-07-29T06:12:29;99460.97;;;18.31;100.00
13732;BME280;6937;56.096;12.664;2023-07-29T06:14:54;99450.59;;;18.35;100.00
13732;BME280;6937;56.096;12.664;2023-07-29T06:17:19;99445.00;;;18.37;100.00
13732;BME280;6937;56.096;12.664;2023-07-29T06:19:45;99431.53;;;18.43;100.00
13732;BME280;6937;56.096;12.664;2023-07-29T06:22:11;99415.91;;;18.45;100.00
13732;BME280;6937;56.096;12.664;2023-07-29T06:24:36;99415.34;;;18.50;100.00
13732;BME280;6937;56.096;12.664;2023-07-29T06:27:02;99387.66;;;18.48;100.00
13732;BME280;6937;56.096;12.664;2023-07-29T06:29:28;99363.78;;;18.51;100.00
13732;BME280;6937;56.096;12.664;2023-07-29T06:31:53;99356.34;;;18.60;100.00
13732;BME280;6937;56.096;12.664;2023-07-29T06:34:19;99329.34;;;18.66;100.00
13732;BME280;6937;56.096;12.664;2023-07-29T06:36:44;99306.28;;;18.70;100.00
13732;BME280;6937;56.096;12.664;2023-07-29T06:39:10;99301.13;;;18.82;100.00
13732;BME280;6937;56.096;12.664;2023-07-29T06:41:35;99283.69;;;18.91;100.00
13732;BME280;6937;56.096;12.664;2023-07-29T06:44:00;99268.31;;;18.98;100.00
13732;BME280;6937;56.096;12.664;2023-07-29T06:46:26;99253.34;;;19.09;100.00
13732;BME280;6937;56.096;12.664;2023-07-29T06:48:51;99250.06;;;19.20;100.00
13732;BME280;6937;56.096;12.664;2023-07-29T06:51:17;99247.16;;;19.28;100.00
13732;BME280;6937;56.096;12.664;2023-07-29T06:53:43;99244.69;;;19.33;100.00
13732;BME280;6937;56.096;12.664;2023-07-29T06:56:09;99240.97;;;19.41;100.00
13732;BME280;6937;56.096;12.664;2023-07-29T06:58:35;99242.28;;;19.51;100.00
13732;BME280;6937;56.096;12.664;2023-07-29T07:01:00;99266.47;;;19.66;100.00
13732;BME280;6937;56.096;12.664;2023-07-29T07:03:27;99255.44;;;19.74;100.00
13732;BME280;6937;56.096;12.664;2023-07-29T07:05:52;99262.75;;;19.73;100.00
13732;BME280;6937;56.096;12.664;2023-07-29T07:08:17;99269.41;;;19.77;100.00
13732;BME280;6937;56.096;12.664;2023-07-29T07:10:43;99272.75;;;19.79;100.00
13732;BME280;6937;56.096;12.664;2023-07-29T07:13:08;99272.75;;;19.73;100.00
13732;BME280;6937;56.096;12.664;2023-07-29T07:15:33;99281.53;;;19.82;100.00
13732;BME280;6937;56.096;12.664;2023-07-29T07:17:59;99281.94;;;19.92;100.00
13732;BME280;6937;56.096;12.664;2023-07-29T07:20:24;99262.16;;;19.98;100.00
13732;BME280;6937;56.096;12.664;2023-07-29T07:22:50;99272.16;;;20.04;100.00
13732;BME280;6937;56.096;12.664;2023-07-29T07:25:15;99278.84;;;20.14;100.00
13732;BME280;6937;56.096;12.664;2023-07-29T07:27:41;99276.13;;;20.21;100.00
13732;BME280;6937;56.096;12.664;2023-07-29T07:30:06;99304.31;;;20.33;100.00
13732;BME280;6937;56.096;12.664;2023-07-29T07:32:32;99324.38;;;20.39;100.00
13732;BME280;6937;56.096;12.664;2023-07-29T07:34:57;99330.66;;;20.39;100.00
13732;BME280;6937;56.096;12.664;2023-07-29T07:37:23;99371.97;;;20.41;100.00
13732;BME280;6937;56.096;12.664;2023-07-29T07:39:48;99393.03;;;20.33;100.00
13732;BME280;6937;56.096;12.664;2023-07-29T07:42:14;99412.19;;;20.24;100.00
13732;BME280;6937;56.096;12.664;2023-07-29T07:44:39;99437.25;;;20.26;100.00
13732;BME280;6937;56.096;12.664;2023-07-29T07:47:05;99438.50;;;20.24;100.00
13732;BME280;6937;56.096;12.664;2023-07-29T07:49:30;99438.75;;;20.29;100.00
13732;BME280;6937;56.096;12.664;2023-07-29T07:51:56;99444.22;;;20.42;100.00
13732;BME280;6937;56.096;12.664;2023-07-29T07:54:21;99437.53;;;20.45;100.00
13732;BME280;6937;56.096;12.664;2023-07-29T07:56:46;99442.56;;;20.54;100.00
13732;BME280;6937;56.096;12.664;2023-07-29T07:59:12;99453.19;;;20.49;100.00
13732;BME280;6937;56.096;12.664;2023-07-29T08:01:38;99440.47;;;20.50;100.00
13732;BME280;6937;56.096;12.664;2023-07-29T08:04:04;99434.19;;;20.56;100.00
13732;BME280;6937;56.096;12.664;2023-07-29T08:06:31;99419.59;;;20.57;100.00
13732;BME280;6937;56.096;12.664;2023-07-29T08:08:57;99416.03;;;20.63;100.00
13732;BME280;6937;56.096;12.664;2023-07-29T08:11:22;99408.28;;;20.66;100.00
13732;BME280;6937;56.096;12.664;2023-07-29T08:13:48;99400.16;;;20.66;100.00
13732;BME280;6937;56.096;12.664;2023-07-29T08:16:13;99392.00;;;20.66;100.00
13732;BME280;6937;56.096;12.664;2023-07-29T08:18:39;99376.97;;;20.70;100.00
13732;BME280;6937;56.096;12.664;2023-07-29T08:21:04;99363.81;;;20.67;100.00
13732;BME280;6937;56.096;12.664;2023-07-29T08:23:31;99350.88;;;20.63;100.00
13732;BME280;6937;56.096;12.664;2023-07-29T08:25:58;99330.81;;;20.51;100.00
13732;BME280;6937;56.096;12.664;2023-07-29T08:28:28;99319.38;;;20.62;100.00
13732;BME280;6937;56.096;12.664;2023-07-29T08:30:54;99294.50;;;20.65;100.00
13732;BME280;6937;56.096;12.664;2023-07-29T08:33:20;99289.03;;;20.71;100.00
13732;BME280;6937;56.096;12.664;2023-07-29T08:35:45;99271.31;;;20.69;100.00
13732;BME280;6937;56.096;12.664;2023-07-29T08:38:10;99265.84;;;20.76;100.00
13732;BME280;6937;56.096;12.664;2023-07-29T08:40:37;99239.31;;;20.84;100.00
13732;BME280;6937;56.096;12.664;2023-07-29T08:43:07;99233.22;;;20.89;100.00
13732;BME280;6937;56.096;12.664;2023-07-29T08:45:35;99216.44;;;21.05;100.00
13732;BME280;6937;56.096;12.664;2023-07-29T08:48:08;99235.84;;;21.22;100.00
13732;BME280;6937;56.096;12.664;2023-07-29T08:50:36;99226.13;;;21.39;100.00
13732;BME280;6937;56.096;12.664;2023-07-29T08:53:04;99232.31;;;21.52;100.00
13732;BME280;6937;56.096;12.664;2023-07-29T08:55:29;99255.91;;;21.58;100.00
13732;BME280;6937;56.096;12.664;2023-07-29T08:57:57;99272.00;;;21.60;100.00
13732;BME280;6937;56.096;12.664;2023-07-29T09:00:22;99284.09;;;21.64;100.00
13732;BME280;6937;56.096;12.664;2023-07-29T09:02:48;99283.41;;;21.75;100.00
13732;BME280;6937;56.096;12.664;2023-07-29T09:05:13;99293.88;;;21.72;100.00
13732;BME280;6937;56.096;12.664;2023-07-29T09:07:40;99287.91;;;21.63;100.00
13732;BME280;6937;56.096;12.664;2023-07-29T09:10:09;99295.03;;;21.57;100.00
13732;BME280;6937;56.096;12.664;2023-07-29T09:12:35;99303.03;;;21.46;100.00
13732;BME280;6937;56.096;12.664;2023-07-29T09:15:01;99287.97;;;21.50;100.00
13732;BME280;6937;56.096;12.664;2023-07-29T09:17:26;99281.81;;;21.61;100.00
13732;BME280;6937;56.096;12.664;2023-07-29T09:19:55;99278.28;;;21.60;100.00
13732;BME280;6937;56.096;12.664;2023-07-29T09:22:21;99295.06;;;21.51;100.00
13732;BME280;6937;56.096;12.664;2023-07-29T09:24:47;99288.53;;;21.58;100.00
13732;BME280;6937;56.096;12.664;2023-07-29T09:27:26;99289.16;;;21.60;100.00
13732;BME280;6937;56.096;12.664;2023-07-29T09:29:52;99297.78;;;21.51;100.00
13732;BME280;6937;56.096;12.664;2023-07-29T09:32:19;99275.59;;;21.54;100.00
13732;BME280;6937;56.096;12.664;2023-07-29T09:34:45;99290.66;;;21.50;100.00
13732;BME280;6937;56.096;12.664;2023-07-29T09:37:20;99282.16;;;21.40;100.00
13732;BME280;6937;56.096;12.664;2023-07-29T09:39:47;99266.22;;;21.50;100.00
13732;BME280;6937;56.096;12.664;2023-07-29T09:42:20;99262.19;;;21.59;100.00
13732;BME280;6937;56.096;12.664;2023-07-29T09:44:46;99256.38;;;21.55;100.00
13732;BME280;6937;56.096;12.664;2023-07-29T09:47:23;99266.53;;;21.66;100.00
13732;BME280;6937;56.096;12.664;2023-07-29T09:49:49;99275.31;;;21.68;100.00
13732;BME280;6937;56.096;12.664;2023-07-29T09:52:16;99283.66;;;21.67;100.00
13732;BME280;6937;56.096;12.664;2023-07-29T09:54:43;99284.03;;;21.77;100.00
13732;BME280;6937;56.096;12.664;2023-07-29T09:57:16;99304.75;;;21.78;100.00
13732;BME280;6937;56.096;12.664;2023-07-29T09:59:43;99351.63;;;21.74;100.00
13732;BME280;6937;56.096;12.664;2023-07-29T10:02:16;99367.72;;;21.75;100.00
13732;BME280;6937;56.096;12.664;2023-07-29T10:04:42;99360.34;;;21.82;100.00
13732;BME280;6937;56.096;12.664;2023-07-29T10:07:09;99363.16;;;21.69;100.00
13732;BME280;6937;56.096;12.664;2023-07-29T10:09:36;99362.81;;;21.52;100.00
13732;BME280;6937;56.096;12.664;2023-07-29T10:12:01;99352.78;;;21.46;100.00
13732;BME280;6937;56.096;12.664;2023-07-29T10:14:30;99321.44;;;21.44;100.00
13732;BME280;6937;56.096;12.664;2023-07-29T10:16:56;99309.72;;;21.50;100.00
13732;BME280;6937;56.096;12.664;2023-07-29T10:19:24;99271.00;;;21.54;100.00
13732;BME280;6937;56.096;12.664;2023-07-29T10:21:51;99273.22;;;21.71;100.00
13732;BME280;6937;56.096;12.664;2023-07-29T10:24:19;99261.50;;;21.63;100.00
13732;BME280;6937;56.096;12.664;2023-07-29T10:26:49;99271.22;;;21.53;100.00
13732;BME280;6937;56.096;12.664;2023-07-29T10:29:19;99252.63;;;21.50;100.00
13732;BME280;6937;56.096;12.664;2023-07-29T10:31:47;99227.72;;;21.53;100.00
13732;BME280;6937;56.096;12.664;2023-07-29T10:34:13;99206.44;;;21.43;100.00
13732;BME280;6937;56.096;12.664;2023-07-29T10:36:39;99183.91;;;21.36;100.00
13732;BME280;6937;56.096;12.664;2023-07-29T10:39:07;99152.16;;;21.30;100.00
13732;BME280;6937;56.096;12.664;2023-07-29T10:41:56;99105.41;;;21.22;100.00
13732;BME280;6937;56.096;12.664;2023-07-29T10:49:43;98990.06;;;21.42;100.00
13732;BME280;6937;56.096;12.664;2023-07-29T10:52:16;98976.94;;;21.57;100.00
13732;BME280;6937;56.096;12.664;2023-07-29T10:54:46;98970.53;;;21.52;100.00
13732;BME280;6937;56.096;12.664;2023-07-29T10:57:15;98941.13;;;21.60;100.00
13732;BME280;6937;56.096;12.664;2023-07-29T10:59:53;98909.63;;;21.71;100.00
13732;BME280;6937;56.096;12.664;2023-07-29T11:02:20;98879.03;;;21.94;100.00
13732;BME280;6937;56.096;12.664;2023-07-29T11:04:47;98870.19;;;21.98;100.00
13732;BME280;6937;56.096;12.664;2023-07-29T11:10:02;98913.16;;;21.90;100.00
13732;BME280;6937;56.096;12.664;2023-07-29T11:12:51;98893.63;;;21.81;100.00
13732;BME280;6937;56.096;12.664;2023-07-29T11:15:27;98909.69;;;21.83;100.00
13732;BME280;6937;56.096;12.664;2023-07-29T11:17:57;98886.31;;;21.82;100.00
13732;BME280;6937;56.096;12.664;2023-07-29T11:20:27;98876.13;;;21.77;100.00
13732;BME280;6937;56.096;12.664;2023-07-29T11:22:57;98854.88;;;21.86;100.00
13732;BME280;6937;56.096;12.664;2023-07-29T11:25:24;98838.53;;;22.04;100.00
13732;BME280;6937;56.096;12.664;2023-07-29T11:30:18;98825.88;;;22.62;100.00
13732;BME280;6937;56.096;12.664;2023-07-29T11:32:45;98835.97;;;22.97;100.00
13732;BME280;6937;56.096;12.664;2023-07-29T11:35:13;98891.66;;;23.01;100.00
13732;BME280;6937;56.096;12.664;2023-07-29T11:37:41;98957.97;;;22.95;100.00
13732;BME280;6937;56.096;12.664;2023-07-29T11:40:07;98991.75;;;22.94;100.00
13732;BME280;6937;56.096;12.664;2023-07-29T11:42:36;99037.03;;;22.77;100.00
13732;BME280;6937;56.096;12.664;2023-07-29T11:45:02;99062.19;;;22.79;100.00
13732;BME280;6937;56.096;12.664;2023-07-29T11:47:29;99085.03;;;22.78;100.00
13732;BME280;6937;56.096;12.664;2023-07-29T11:49:58;99112.47;;;22.58;100.00
13732;BME280;6937;56.096;12.664;2023-07-29T11:52:24;99124.59;;;22.44;100.00
13732;BME280;6937;56.096;12.664;2023-07-29T11:54:50;99111.06;;;22.37;100.00
13732;BME280;6937;56.096;12.664;2023-07-29T11:57:16;99099.56;;;22.35;100.00
13732;BME280;6937;56.096;12.664;2023-07-29T11:59:43;99093.72;;;22.32;100.00
13732;BME280;6937;56.096;12.664;2023-07-29T12:02:16;99062.75;;;22.33;100.00
13732;BME280;6937;56.096;12.664;2023-07-29T12:04:44;99054.94;;;22.36;100.00
13732;BME280;6937;56.096;12.664;2023-07-29T12:07:10;99057.84;;;22.41;100.00
13732;BME280;6937;56.096;12.664;2023-07-29T12:09:36;99047.22;;;22.51;100.00
13732;BME280;6937;56.096;12.664;2023-07-29T12:12:05;99056.22;;;22.52;100.00
13732;BME280;6937;56.096;12.664;2023-07-29T12:14:32;99070.31;;;22.49;100.00
13732;BME280;6937;56.096;12.664;2023-07-29T12:17:02;99060.63;;;22.53;100.00
13732;BME280;6937;56.096;12.664;2023-07-29T12:19:32;99077.38;;;22.50;100.00
13732;BME280;6937;56.096;12.664;2023-07-29T12:21:59;99078.97;;;22.57;100.00
13732;BME280;6937;56.096;12.664;2023-07-29T12:24:24;99087.66;;;22.66;100.00
13732;BME280;6937;56.096;12.664;2023-07-29T12:26:50;99087.00;;;22.71;100.00
13732;BME280;6937;56.096;12.664;2023-07-29T12:29:18;99134.03;;;22.59;100.00
13732;BME280;6937;56.096;12.664;2023-07-29T12:31:49;99166.25;;;22.62;100.00
13732;BME280;6937;56.096;12.664;2023-07-29T12:34:21;99149.84;;;22.87;100.00
13732;BME280;6937;56.096;12.664;2023-07-29T12:36:51;99156.06;;;22.94;100.00
13732;BME280;6937;56.096;12.664;2023-07-29T12:39:27;99211.16;;;22.96;100.00
13732;BME280;6937;56.096;12.664;2023-07-29T12:41:55;99226.63;;;23.14;100.00
13732;BME280;6937;56.096;12.664;2023-07-29T12:44:22;99256.31;;;23.22;100.00
13732;BME280;6937;56.096;12.664;2023-07-29T12:46:48;99287.81;;;23.18;100.00
13732;BME280;6937;56.096;12.664;2023-07-29T12:49:13;99303.94;;;23.20;100.00
13732;BME280;6937;56.096;12.664;2023-07-29T12:51:39;99325.00;;;23.31;100.00
13732;BME280;6937;56.096;12.664;2023-07-29T12:54:04;99368.69;;;23.24;100.00
13732;BME280;6937;56.096;12.664;2023-07-29T12:56:31;99378.06;;;23.10;100.00
13732;BME280;6937;56.096;12.664;2023-07-29T12:58:57;99373.59;;;23.16;100.00